Time;durP1;ratioP1;P1;durP2;ratioP2;P2;SDS_P1;SDS_P2;PMS_P1;PMS_P2;Temp;Humidity;BMP_temperature;BMP_pressure;BME280_temperature;BME280_humidity;BME280_pressure;Samples;Min_cycle;Max_cycle;Signal;HPM_P1;HPM_P2
2021/12/26 00:01:30;;;;;;;46.13;30.80;;;;;;;;;;5073930;28;20028;-83
2021/12/26 00:03:57;;;;;;;52.70;37.40;;;;;;;;;;5074362;28;20062;-83
2021/12/26 00:06:28;;;;;;;56.38;37.28;;;;;;;;;;5074156;28;20034;-80
2021/12/26 00:08:55;;;;;;;45.20;31.10;;;;;;;;;;5072929;28;20816;-83
2021/12/26 00:11:23;;;;;;;61.92;44.90;;;;;;;;;;5073598;28;20028;-79
2021/12/26 00:13:50;;;;;;;85.13;55.78;;;;;;;;;;5073383;28;20013;-78
2021/12/26 00:16:17;;;;;;;92.18;58.50;;;;;;;;;;5072401;28;20032;-77
2021/12/26 00:18:46;;;;;;;105.20;66.97;;;;;;;;;;5073153;28;20387;-79
2021/12/26 00:21:17;;;;;;;74.82;50.08;;;;;;;;;;5070085;28;20032;-80
2021/12/26 00:23:46;;;;;;;65.03;42.95;;;;;;;;;;5072504;28;20050;-81
2021/12/26 00:26:13;;;;;;;42.20;28.65;;;;;;;;;;5074079;28;20025;-83
2021/12/26 00:28:39;;;;;;;42.35;32.20;;;;;;;;;;5073744;28;20507;-79
2021/12/26 00:31:06;;;;;;;40.88;28.58;;;;;;;;;;5073921;28;20039;-78
2021/12/26 00:33:32;;;;;;;46.65;32.47;;;;;;;;;;5073564;28;20032;-82
2021/12/26 00:35:59;;;;;;;54.67;37.42;;;;;;;;;;5073785;28;20032;-79
2021/12/26 00:38:25;;;;;;;55.97;36.92;;;;;;;;;;5073342;28;20032;-78
2021/12/26 00:40:51;;;;;;;38.03;27.50;;;;;;;;;;5073625;28;20025;-82
2021/12/26 00:43:17;;;;;;;47.55;31.33;;;;;;;;;;5073487;28;20035;-79
2021/12/26 00:45:44;;;;;;;49.55;34.85;;;;;;;;;;5073280;28;20036;-82
2021/12/26 00:48:10;;;;;;;53.03;36.55;;;;;;;;;;5073545;28;20481;-80
2021/12/26 00:50:38;;;;;;;59.17;39.83;;;;;;;;;;5071946;28;20025;-79
2021/12/26 00:53:07;;;;;;;68.00;44.13;;;;;;;;;;5072145;28;20025;-79
2021/12/26 00:55:33;;;;;;;68.03;42.10;;;;;;;;;;5073065;28;20091;-80
2021/12/26 00:57:59;;;;;;;41.30;28.50;;;;;;;;;;5072028;28;20040;-81
2021/12/26 01:00:28;;;;;;;28.27;20.63;;;;;;;;;;5073044;28;20024;-81
2021/12/26 01:02:55;;;;;;;26.75;19.58;;;;;;;;;;5073219;28;20091;-81
2021/12/26 01:05:22;;;;;;;28.45;20.42;;;;;;;;;;5073114;28;20428;-81
2021/12/26 01:07:59;;;;;;;27.75;21.00;;;;;;;;;;5073109;28;20032;-80
2021/12/26 01:10:32;;;;;;;53.92;37.55;;;;;;;;;;5072727;28;20024;-79
2021/12/26 01:13:11;;;;;;;48.28;34.17;;;;;;;;;;5072530;28;20471;-80
2021/12/26 01:15:37;;;;;;;42.47;30.75;;;;;;;;;;5072818;28;20031;-81
2021/12/26 01:18:06;;;;;;;52.97;37.13;;;;;;;;;;5072707;28;20469;-79
2021/12/26 01:23:05;;;;;;;64.85;44.25;;;;;;;;;;5072587;28;20430;-79
2021/12/26 01:25:31;;;;;;;54.33;35.10;;;;;;;;;;5072487;28;20113;-82
2021/12/26 01:27:57;;;;;;;43.25;29.35;;;;;;;;;;5072624;28;20085;-81
2021/12/26 01:30:23;;;;;;;44.38;29.20;;;;;;;;;;5072743;28;20029;-80
2021/12/26 01:32:50;;;;;;;46.97;30.92;;;;;;;;;;5071404;28;20497;-79
2021/12/26 01:35:16;;;;;;;42.47;29.38;;;;;;;;;;5072397;28;20388;-80
2021/12/26 01:37:42;;;;;;;39.50;29.38;;;;;;;;;;5072313;28;20032;-80
2021/12/26 01:40:09;;;;;;;46.63;30.67;;;;;;;;;;5072193;28;20020;-80
2021/12/26 01:42:35;;;;;;;41.55;29.27;;;;;;;;;;5072670;28;20047;-82
2021/12/26 01:45:01;;;;;;;44.22;30.50;;;;;;;;;;5072432;28;20024;-83
2021/12/26 01:47:29;;;;;;;41.88;29.88;;;;;;;;;;5072494;28;20024;-80
2021/12/26 01:49:56;;;;;;;52.45;38.65;;;;;;;;;;5071231;28;20394;-78
2021/12/26 01:52:22;;;;;;;50.00;37.15;;;;;;;;;;5072233;28;20463;-80
2021/12/26 01:54:59;;;;;;;84.45;55.53;;;;;;;;;;5072261;28;20032;-83
2021/12/26 01:57:26;;;;;;;96.65;59.22;;;;;;;;;;5072363;28;20025;-83
2021/12/26 01:59:52;;;;;;;89.07;56.10;;;;;;;;;;5072126;28;20074;-78
2021/12/26 02:02:18;;;;;;;88.60;53.97;;;;;;;;;;5070970;28;20075;-81
2021/12/26 02:04:44;;;;;;;122.60;72.03;;;;;;;;;;5072166;28;20021;-83
2021/12/26 02:07:15;;;;;;;99.00;60.67;;;;;;;;;;5072134;28;20029;-83
2021/12/26 02:09:41;;;;;;;103.05;62.60;;;;;;;;;;5072219;28;20032;-78
2021/12/26 02:12:11;;;;;;;98.47;61.63;;;;;;;;;;5072110;28;20482;-81
2021/12/26 02:14:37;;;;;;;100.13;60.45;;;;;;;;;;5072150;28;20499;-82
2021/12/26 02:17:03;;;;;;;77.57;52.00;;;;;;;;;;5070548;28;20434;-82
2021/12/26 02:19:29;;;;;;;40.80;28.27;;;;;;;;;;5072115;28;20468;-82
2021/12/26 02:22:11;;;;;;;43.95;29.42;;;;;;;;;;5070558;28;20051;-80
2021/12/26 02:27:31;;;;;;;31.80;21.42;;;;;;;;;;5073012;28;20016;-79
2021/12/26 02:29:57;;;;;;;37.88;25.50;;;;;;;;;;5074839;28;20028;-79
2021/12/26 02:32:24;;;;;;;34.42;25.98;;;;;;;;;;5076048;28;20475;-81
2021/12/26 02:34:50;;;;;;;59.33;34.20;;;;;;;;;;5076116;28;20052;-82
2021/12/26 02:37:16;;;;;;;53.05;38.00;;;;;;;;;;5075954;28;20078;-83
2021/12/26 02:39:42;;;;;;;52.75;35.40;;;;;;;;;;5075673;28;20138;-82
2021/12/26 02:42:08;;;;;;;43.75;29.85;;;;;;;;;;5075881;28;20103;-80
2021/12/26 02:44:34;;;;;;;37.03;25.42;;;;;;;;;;5075618;28;20038;-81
2021/12/26 02:47:01;;;;;;;37.90;24.52;;;;;;;;;;5075830;28;20107;-81
2021/12/26 02:49:27;;;;;;;35.33;24.02;;;;;;;;;;5074365;28;20063;-81
2021/12/26 02:51:54;;;;;;;29.50;20.77;;;;;;;;;;5074423;28;20028;-78
2021/12/26 02:54:23;;;;;;;29.83;22.80;;;;;;;;;;5057896;28;20194;-81
2021/12/26 02:56:52;;;;;;;32.83;20.85;;;;;;;;;;5074115;28;20419;-81
2021/12/26 02:59:18;;;;;;;32.33;22.45;;;;;;;;;;5075531;28;20024;-80
2021/12/26 03:01:44;;;;;;;38.17;25.30;;;;;;;;;;5075330;28;20099;-79
2021/12/26 03:04:10;;;;;;;41.08;28.35;;;;;;;;;;5075586;28;20028;-80
2021/12/26 03:09:22;;;;;;;29.35;21.15;;;;;;;;;;5075265;28;20508;-80
2021/12/26 03:11:49;;;;;;;27.45;20.00;;;;;;;;;;5075311;28;20536;-79
2021/12/26 03:14:16;;;;;;;28.02;20.70;;;;;;;;;;5075245;28;20020;-79
2021/12/26 03:16:51;;;;;;;46.38;29.25;;;;;;;;;;5075174;28;20033;-80
2021/12/26 03:19:18;;;;;;;34.15;23.70;;;;;;;;;;5075091;28;20028;-78
2021/12/26 03:21:46;;;;;;;30.20;20.85;;;;;;;;;;5073684;28;20097;-83
2021/12/26 03:24:12;;;;;;;28.38;20.52;;;;;;;;;;5074811;28;20518;-79
2021/12/26 03:26:38;;;;;;;23.73;18.23;;;;;;;;;;5073750;28;20025;-79
2021/12/26 03:29:05;;;;;;;27.45;19.13;;;;;;;;;;5075154;28;20029;-83
2021/12/26 03:31:31;;;;;;;31.50;22.13;;;;;;;;;;5074924;28;20029;-82
2021/12/26 03:33:57;;;;;;;37.75;27.63;;;;;;;;;;5074994;28;20029;-80
2021/12/26 03:36:23;;;;;;;31.30;23.70;;;;;;;;;;5072773;28;20028;-77
2021/12/26 03:38:49;;;;;;;30.40;23.50;;;;;;;;;;5074757;28;20036;-79
2021/12/26 03:41:15;;;;;;;29.38;22.52;;;;;;;;;;5074605;28;20021;-79
2021/12/26 03:43:42;;;;;;;28.25;22.60;;;;;;;;;;5073421;28;20049;-80
2021/12/26 03:46:08;;;;;;;27.00;19.83;;;;;;;;;;5074785;28;20032;-80
2021/12/26 03:48:36;;;;;;;25.33;19.13;;;;;;;;;;5074424;28;20032;-80
2021/12/26 03:51:04;;;;;;;25.08;19.58;;;;;;;;;;5074565;28;20078;-81
2021/12/26 03:53:32;;;;;;;24.65;17.73;;;;;;;;;;5074537;28;20109;-83
2021/12/26 03:56:06;;;;;;;28.77;21.10;;;;;;;;;;5073316;28;20480;-81
2021/12/26 03:58:33;;;;;;;37.90;24.70;;;;;;;;;;5074279;28;20502;-79
2021/12/26 04:00:59;;;;;;;37.95;25.25;;;;;;;;;;5074451;28;20020;-82
2021/12/26 04:03:25;;;;;;;37.65;26.10;;;;;;;;;;5074204;28;20059;-80
2021/12/26 04:05:53;;;;;;;40.63;27.95;;;;;;;;;;5074184;28;20564;-78
2021/12/26 04:08:22;;;;;;;40.20;28.42;;;;;;;;;;5074154;28;20384;-80
2021/12/26 04:10:49;;;;;;;31.33;23.05;;;;;;;;;;5074140;28;20499;-81
2021/12/26 04:13:15;;;;;;;34.90;25.17;;;;;;;;;;5072876;28;20062;-79
2021/12/26 04:15:41;;;;;;;43.10;29.98;;;;;;;;;;5074081;28;20390;-82
2021/12/26 04:18:07;;;;;;;34.97;26.60;;;;;;;;;;5072558;28;20463;-77
2021/12/26 04:20:34;;;;;;;30.85;22.15;;;;;;;;;;5073984;28;20051;-79
2021/12/26 04:23:00;;;;;;;27.73;20.25;;;;;;;;;;5074026;28;20028;-79
2021/12/26 04:25:27;;;;;;;27.90;20.95;;;;;;;;;;5073654;28;20052;-82
2021/12/26 04:27:56;;;;;;;28.67;21.02;;;;;;;;;;5073942;28;20029;-78
2021/12/26 04:30:23;;;;;;;26.10;20.50;;;;;;;;;;5073606;28;20025;-76
2021/12/26 04:32:49;;;;;;;24.77;19.73;;;;;;;;;;5073697;28;20031;-79
2021/12/26 04:35:17;;;;;;;29.67;21.90;;;;;;;;;;5072348;28;20380;-80
2021/12/26 04:37:43;;;;;;;29.25;22.40;;;;;;;;;;5073698;28;20027;-80
2021/12/26 04:40:12;;;;;;;33.35;24.65;;;;;;;;;;5073697;28;20036;-79
2021/12/26 04:42:40;;;;;;;32.67;24.30;;;;;;;;;;5073927;28;20095;-79
2021/12/26 04:45:08;;;;;;;31.98;23.27;;;;;;;;;;5074349;28;20040;-79
2021/12/26 04:47:37;;;;;;;31.27;23.88;;;;;;;;;;5073840;28;20476;-80
2021/12/26 04:50:06;;;;;;;36.35;29.05;;;;;;;;;;5074546;28;20047;-79
2021/12/26 04:52:32;;;;;;;33.58;24.83;;;;;;;;;;5073563;28;20024;-80
2021/12/26 04:55:01;;;;;;;34.25;25.80;;;;;;;;;;5073330;28;20029;-80
2021/12/26 04:57:28;;;;;;;51.88;46.78;;;;;;;;;;5064964;28;20082;-79
2021/12/26 04:59:54;;;;;;;62.70;50.75;;;;;;;;;;5060508;28;20541;-78
2021/12/26 05:02:20;;;;;;;31.17;21.98;;;;;;;;;;5071454;28;20031;-81
2021/12/26 05:04:46;;;;;;;26.98;20.55;;;;;;;;;;5067065;28;20029;-77
2021/12/26 05:07:12;;;;;;;28.85;21.20;;;;;;;;;;5072843;28;20028;-80
2021/12/26 05:09:38;;;;;;;36.28;28.52;;;;;;;;;;5073228;28;20103;-78
2021/12/26 05:12:05;;;;;;;38.45;32.33;;;;;;;;;;5073042;28;20039;-78
2021/12/26 05:14:31;;;;;;;38.78;28.50;;;;;;;;;;5072864;28;20033;-80
2021/12/26 05:16:57;;;;;;;40.65;28.85;;;;;;;;;;5072752;28;20032;-79
2021/12/26 05:19:23;;;;;;;35.25;26.13;;;;;;;;;;5072762;28;20033;-78
2021/12/26 05:21:49;;;;;;;56.05;37.85;;;;;;;;;;5072964;28;20376;-78
2021/12/26 05:24:15;;;;;;;56.88;39.33;;;;;;;;;;5071400;28;20059;-80
2021/12/26 05:26:41;;;;;;;52.20;37.08;;;;;;;;;;5072852;28;20089;-76
2021/12/26 05:29:08;;;;;;;53.80;37.90;;;;;;;;;;5072745;28;20032;-77
2021/12/26 05:31:34;;;;;;;47.53;34.30;;;;;;;;;;5072649;28;20103;-77
2021/12/26 05:34:00;;;;;;;37.95;25.83;;;;;;;;;;5072718;28;20029;-83
2021/12/26 05:36:26;;;;;;;40.35;27.02;;;;;;;;;;5072539;28;20102;-77
2021/12/26 05:38:53;;;;;;;40.28;30.02;;;;;;;;;;5072515;28;20105;-75
2021/12/26 05:41:19;;;;;;;43.38;35.90;;;;;;;;;;5072491;28;20031;-79
2021/12/26 05:43:45;;;;;;;70.95;42.60;;;;;;;;;;5072383;28;20032;-80
2021/12/26 05:46:11;;;;;;;56.72;34.70;;;;;;;;;;5072403;28;20028;-80
2021/12/26 05:48:38;;;;;;;59.08;36.97;;;;;;;;;;5072319;28;20033;-81
2021/12/26 05:51:04;;;;;;;81.97;48.92;;;;;;;;;;5072506;28;20047;-80
2021/12/26 05:53:32;;;;;;;101.13;58.40;;;;;;;;;;5072227;28;20028;-79
2021/12/26 05:55:58;;;;;;;40.60;27.98;;;;;;;;;;5072388;28;20060;-80
2021/12/26 05:58:26;;;;;;;43.00;30.40;;;;;;;;;;5072043;28;20035;-78
2021/12/26 06:00:56;;;;;;;43.60;32.00;;;;;;;;;;5071247;28;20031;-78
2021/12/26 06:03:25;;;;;;;36.25;25.38;;;;;;;;;;5072262;28;20059;-83
2021/12/26 06:05:51;;;;;;;45.58;31.70;;;;;;;;;;5072361;28;20104;-80
2021/12/26 06:08:17;;;;;;;40.92;27.70;;;;;;;;;;5072234;28;20024;-81
2021/12/26 06:10:44;;;;;;;39.40;27.63;;;;;;;;;;5072041;28;20115;-79
2021/12/26 06:13:10;;;;;;;60.13;39.58;;;;;;;;;;5072243;28;20392;-80
2021/12/26 06:15:38;;;;;;;38.33;24.02;;;;;;;;;;5072089;28;20387;-81
2021/12/26 06:18:04;;;;;;;28.63;20.20;;;;;;;;;;5072187;28;20032;-81
2021/12/26 06:20:30;;;;;;;32.60;23.50;;;;;;;;;;5071686;28;20055;-80
2021/12/26 06:22:57;;;;;;;43.90;29.98;;;;;;;;;;5072145;28;20039;-78
2021/12/26 06:25:23;;;;;;;45.60;30.58;;;;;;;;;;5070640;28;20450;-82
2021/12/26 06:27:49;;;;;;;44.97;32.63;;;;;;;;;;5072022;28;20486;-78
2021/12/26 06:30:15;;;;;;;47.42;32.78;;;;;;;;;;5072171;28;20044;-81
2021/12/26 06:32:42;;;;;;;49.03;32.55;;;;;;;;;;5071968;28;20021;-82
2021/12/26 06:35:08;;;;;;;49.38;33.85;;;;;;;;;;5071997;28;20024;-80
2021/12/26 06:37:35;;;;;;;69.13;45.35;;;;;;;;;;5070440;28;20036;-81
2021/12/26 06:40:01;;;;;;;54.83;38.08;;;;;;;;;;5071965;28;20039;-76
2021/12/26 06:42:30;;;;;;;61.97;42.72;;;;;;;;;;5071832;28;20031;-81
2021/12/26 06:44:57;;;;;;;54.15;39.55;;;;;;;;;;5071965;28;20024;-80
2021/12/26 06:47:25;;;;;;;54.80;39.75;;;;;;;;;;5071954;28;20055;-76
2021/12/26 06:49:53;;;;;;;73.93;50.22;;;;;;;;;;5071603;28;20033;-80
2021/12/26 06:52:20;;;;;;;69.95;45.65;;;;;;;;;;5070391;28;20029;-80
2021/12/26 06:54:48;;;;;;;75.45;49.70;;;;;;;;;;5071743;28;20031;-81
2021/12/26 06:57:14;;;;;;;64.90;43.75;;;;;;;;;;5071836;28;20116;-80
2021/12/26 06:59:41;;;;;;;60.08;43.20;;;;;;;;;;5071638;28;20028;-79
2021/12/26 07:02:09;;;;;;;98.60;65.60;;;;;;;;;;5071659;28;20025;-77
2021/12/26 07:04:35;;;;;;;102.25;67.07;;;;;;;;;;5070318;28;20029;-82
2021/12/26 07:07:01;;;;;;;107.68;71.93;;;;;;;;;;5070370;28;20055;-77
2021/12/26 07:09:27;;;;;;;99.22;63.17;;;;;;;;;;5071622;28;20064;-81
2021/12/26 07:11:54;;;;;;;102.60;65.18;;;;;;;;;;5074161;28;20058;-81
2021/12/26 07:14:20;;;;;;;122.03;82.43;;;;;;;;;;5075328;28;20036;-80
2021/12/26 07:16:46;;;;;;;120.10;81.88;;;;;;;;;;5075146;28;20494;-79
2021/12/26 07:19:12;;;;;;;96.53;65.40;;;;;;;;;;5075175;28;20033;-81
2021/12/26 07:21:40;;;;;;;71.10;50.90;;;;;;;;;;5074771;28;20036;-79
2021/12/26 07:24:06;;;;;;;58.45;43.03;;;;;;;;;;5074934;28;20384;-80
2021/12/26 07:26:33;;;;;;;66.13;43.67;;;;;;;;;;5075058;28;20027;-80
2021/12/26 07:29:02;;;;;;;49.90;34.72;;;;;;;;;;5074973;28;20035;-79
2021/12/26 07:31:28;;;;;;;51.97;37.60;;;;;;;;;;5074752;28;20360;-78
2021/12/26 07:33:54;;;;;;;48.95;33.63;;;;;;;;;;5074920;28;20017;-81
2021/12/26 07:36:20;;;;;;;54.25;39.70;;;;;;;;;;5074848;28;20035;-78
2021/12/26 07:38:47;;;;;;;78.72;52.95;;;;;;;;;;5074734;28;20115;-78
2021/12/26 07:41:13;;;;;;;88.60;56.92;;;;;;;;;;5074776;28;20035;-80
2021/12/26 07:43:39;;;;;;;85.70;55.88;;;;;;;;;;5074773;28;20029;-77
2021/12/26 07:46:05;;;;;;;64.95;44.90;;;;;;;;;;5074810;28;20026;-77
2021/12/26 07:48:31;;;;;;;64.30;43.25;;;;;;;;;;5074741;28;20373;-79
2021/12/26 07:51:04;;;;;;;63.83;44.00;;;;;;;;;;5074523;28;20050;-79
2021/12/26 07:53:30;;;;;;;43.35;33.70;;;;;;;;;;5074590;28;20059;-79
2021/12/26 07:55:57;;;;;;;45.78;32.22;;;;;;;;;;5074356;28;20480;-79
2021/12/26 07:58:25;;;;;;;45.47;32.70;;;;;;;;;;5074370;28;20380;-77
2021/12/26 08:00:51;;;;;;;59.05;37.75;;;;;;;;;;5074265;28;20035;-77
2021/12/26 08:03:18;;;;;;;44.80;30.25;;;;;;;;;;5074268;28;20067;-80
2021/12/26 08:05:44;;;;;;;79.78;47.88;;;;;;;;;;5074238;28;20028;-80
2021/12/26 08:08:10;;;;;;;48.33;31.80;;;;;;;;;;5074243;28;20029;-82
2021/12/26 08:10:36;;;;;;;42.20;30.67;;;;;;;;;;5074343;28;20471;-75
2021/12/26 08:13:02;;;;;;;43.95;31.55;;;;;;;;;;5074251;28;20043;-79
2021/12/26 08:15:28;;;;;;;195.77;126.78;;;;;;;;;;5074177;28;20153;-74
2021/12/26 08:17:54;;;;;;;151.77;112.60;;;;;;;;;;5073688;28;20111;-75
2021/12/26 08:20:21;;;;;;;115.93;87.22;;;;;;;;;;5072870;28;20032;-78
2021/12/26 08:22:47;;;;;;;107.95;73.22;;;;;;;;;;5073720;28;20036;-79
2021/12/26 08:25:13;;;;;;;88.38;62.85;;;;;;;;;;5073909;28;20092;-79
2021/12/26 08:27:40;;;;;;;117.35;79.63;;;;;;;;;;5074002;28;20390;-78
2021/12/26 08:30:06;;;;;;;144.52;103.97;;;;;;;;;;5073856;28;20052;-77
2021/12/26 08:32:35;;;;;;;110.45;83.18;;;;;;;;;;5073832;28;20024;-77
2021/12/26 08:35:04;;;;;;;66.10;49.30;;;;;;;;;;5073765;28;20039;-79
2021/12/26 08:37:31;;;;;;;56.88;42.20;;;;;;;;;;5073634;28;20047;-80
2021/12/26 08:39:57;;;;;;;49.95;40.40;;;;;;;;;;5073461;28;20054;-80
2021/12/26 08:42:23;;;;;;;52.47;39.10;;;;;;;;;;5073454;28;20020;-78
2021/12/26 08:44:52;;;;;;;68.30;51.03;;;;;;;;;;5073301;28;20432;-78
2021/12/26 08:47:18;;;;;;;96.47;70.50;;;;;;;;;;5073552;28;20044;-77
2021/12/26 08:49:44;;;;;;;105.47;76.70;;;;;;;;;;5073382;28;20593;-77
2021/12/26 08:52:11;;;;;;;99.05;70.10;;;;;;;;;;5073183;28;20064;-79
2021/12/26 08:54:38;;;;;;;172.50;123.38;;;;;;;;;;5073532;28;20411;-80
2021/12/26 08:57:05;;;;;;;118.00;84.60;;;;;;;;;;5073157;28;20027;-80
2021/12/26 08:59:31;;;;;;;240.43;164.40;;;;;;;;;;5072997;28;20399;-77
2021/12/26 09:01:59;;;;;;;283.00;200.23;;;;;;;;;;5073229;28;20403;-82
2021/12/26 09:04:25;;;;;;;143.77;103.90;;;;;;;;;;5073167;28;20020;-77
2021/12/26 09:06:53;;;;;;;143.63;103.43;;;;;;;;;;5073069;28;20028;-80
2021/12/26 09:09:19;;;;;;;190.30;137.52;;;;;;;;;;5073115;28;20028;-78
2021/12/26 09:11:45;;;;;;;263.42;185.98;;;;;;;;;;5072947;28;20103;-80
2021/12/26 09:14:11;;;;;;;186.95;138.57;;;;;;;;;;5072872;28;20430;-79
2021/12/26 09:16:40;;;;;;;207.68;144.88;;;;;;;;;;5072933;28;20471;-76
2021/12/26 09:19:07;;;;;;;220.00;152.48;;;;;;;;;;5072745;28;20064;-79
2021/12/26 09:21:35;;;;;;;201.98;147.05;;;;;;;;;;5072763;28;20059;-80
2021/12/26 09:24:01;;;;;;;205.88;148.23;;;;;;;;;;5072535;28;20064;-83
2021/12/26 09:26:30;;;;;;;126.95;90.13;;;;;;;;;;5072614;28;20514;-76
2021/12/26 09:28:57;;;;;;;69.75;51.13;;;;;;;;;;5072690;28;20017;-81
2021/12/26 09:31:24;;;;;;;69.57;50.90;;;;;;;;;;5072613;28;20568;-80
2021/12/26 09:33:51;;;;;;;68.00;50.05;;;;;;;;;;5072156;28;20035;-79
2021/12/26 09:36:17;;;;;;;88.68;62.90;;;;;;;;;;5072570;28;20040;-78
2021/12/26 09:38:43;;;;;;;77.97;56.75;;;;;;;;;;5072569;28;20078;-78
2021/12/26 09:41:09;;;;;;;68.38;52.38;;;;;;;;;;5072520;28;20487;-78
2021/12/26 09:43:36;;;;;;;62.35;46.80;;;;;;;;;;5072615;28;20472;-77
2021/12/26 09:46:02;;;;;;;53.88;40.78;;;;;;;;;;5071053;28;20024;-80
2021/12/26 09:48:28;;;;;;;65.57;49.13;;;;;;;;;;5072425;28;20027;-79
2021/12/26 09:50:54;;;;;;;50.20;39.40;;;;;;;;;;5070966;28;20036;-78
2021/12/26 09:53:20;;;;;;;59.38;41.53;;;;;;;;;;5072202;28;20085;-80
2021/12/26 09:55:46;;;;;;;49.38;36.35;;;;;;;;;;5072253;28;20021;-77
2021/12/26 09:58:15;;;;;;;50.50;35.05;;;;;;;;;;5072230;28;20032;-80
2021/12/26 10:00:43;;;;;;;44.67;31.77;;;;;;;;;;5072478;28;20025;-76
2021/12/26 10:03:33;;;;;;;46.45;32.10;;;;;;;;;;5070851;28;20066;-82
2021/12/26 10:06:02;;;;;;;63.45;42.97;;;;;;;;;;5072309;28;20028;-78
2021/12/26 10:08:32;;;;;;;61.10;42.00;;;;;;;;;;5072089;28;20471;-80
2021/12/26 10:11:17;;;;;;;44.83;33.50;;;;;;;;;;5072405;28;20025;-80
2021/12/26 10:13:43;;;;;;;43.25;35.55;;;;;;;;;;5072355;28;20484;-76
2021/12/26 10:16:10;;;;;;;58.53;46.90;;;;;;;;;;5072198;28;20506;-82
2021/12/26 10:18:39;;;;;;;145.80;109.03;;;;;;;;;;5070609;28;20032;-80
2021/12/26 10:21:24;;;;;;;105.75;80.18;;;;;;;;;;5072270;28;20024;-81
2021/12/26 10:23:50;;;;;;;89.72;67.03;;;;;;;;;;5070643;28;20508;-75
2021/12/26 10:26:23;;;;;;;63.17;46.88;;;;;;;;;;5071781;28;20021;-79
2021/12/26 10:29:07;;;;;;;54.72;39.75;;;;;;;;;;5072134;28;20037;-78
2021/12/26 10:31:34;;;;;;;50.35;38.55;;;;;;;;;;5072086;28;20021;-78
2021/12/26 10:34:00;;;;;;;52.90;43.28;;;;;;;;;;5072133;28;20039;-81
2021/12/26 10:36:27;;;;;;;36.00;26.35;;;;;;;;;;5071885;28;20028;-76
2021/12/26 10:39:14;;;;;;;44.53;33.42;;;;;;;;;;5070308;28;20040;-78
2021/12/26 10:41:41;;;;;;;38.35;29.05;;;;;;;;;;5071466;28;20026;-78
2021/12/26 10:44:18;;;;;;;30.15;22.00;;;;;;;;;;5070716;28;20086;-81
2021/12/26 10:46:47;;;;;;;35.97;28.00;;;;;;;;;;5074292;28;20415;-78
2021/12/26 10:49:32;;;;;;;34.17;23.65;;;;;;;;;;5075697;28;20012;-80
2021/12/26 10:51:58;;;;;;;;;;;;;;;;;;5075930;28;20027;-75
2021/12/26 10:54:31;;;;;;;47.70;34.60;;;;;;;;;;5075599;28;19905;-79
2021/12/26 10:57:19;;;;;;;36.95;29.40;;;;;;;;;;5075693;28;20078;-82
2021/12/26 10:59:46;;;;;;;37.53;28.63;;;;;;;;;;5075373;28;20116;-81
2021/12/26 11:02:21;;;;;;;33.13;25.58;;;;;;;;;;5075432;28;20164;-77
2021/12/26 11:05:00;;;;;;;43.53;27.23;;;;;;;;;;5074218;28;20414;-78
2021/12/26 11:07:26;;;;;;;43.55;32.05;;;;;;;;;;5074069;28;20028;-77
2021/12/26 11:10:06;;;;;;;39.72;30.80;;;;;;;;;;5075369;28;20016;-81
2021/12/26 11:12:37;;;;;;;35.72;29.40;;;;;;;;;;5074924;28;20112;-82
2021/12/26 11:15:03;;;;;;;32.85;26.42;;;;;;;;;;5079316;28;20047;-80
2021/12/26 11:17:31;;;;;;;29.85;23.13;;;;;;;;;;5075117;28;20028;-79
2021/12/26 11:19:57;;;;;;;34.33;27.02;;;;;;;;;;5075284;28;20028;-80
2021/12/26 11:22:26;;;;;;;42.38;33.60;;;;;;;;;;5074858;28;20024;-76
2021/12/26 11:24:53;;;;;;;37.22;29.80;;;;;;;;;;5075212;28;20055;-81
2021/12/26 11:27:23;;;;;;;40.40;32.17;;;;;;;;;;5074751;28;20020;-78
2021/12/26 11:29:49;;;;;;;31.38;25.23;;;;;;;;;;5075198;28;20024;-77
2021/12/26 11:32:19;;;;;;;32.65;24.45;;;;;;;;;;5074776;28;20031;-76
2021/12/26 11:34:50;;;;;;;37.90;26.02;;;;;;;;;;5075023;28;20108;-79
2021/12/26 11:37:16;;;;;;;32.65;25.25;;;;;;;;;;5073412;28;20388;-78
2021/12/26 11:39:43;;;;;;;33.40;25.25;;;;;;;;;;5074841;28;20115;-78
2021/12/26 11:42:39;;;;;;;36.30;26.77;;;;;;;;;;5074506;28;20086;-80
2021/12/26 11:45:10;;;;;;;37.55;29.02;;;;;;;;;;5066019;28;20040;-80
2021/12/26 11:48:09;;;;;;;45.63;35.42;;;;;;;;;;5074683;28;20017;-74
2021/12/26 11:50:35;;;;;;;46.80;34.40;;;;;;;;;;5073300;28;20024;-77
2021/12/26 11:53:04;;;;;;;44.30;35.17;;;;;;;;;;5074690;28;20024;-77
2021/12/26 11:55:49;;;;;;;47.15;37.83;;;;;;;;;;5074372;28;20082;-79
2021/12/26 11:58:18;;;;;;;49.03;37.40;;;;;;;;;;5073118;28;20051;-80
2021/12/26 12:00:49;;;;;;;55.03;41.58;;;;;;;;;;5074397;28;20031;-79
2021/12/26 12:03:21;;;;;;;63.42;50.00;;;;;;;;;;5074297;28;20025;-82
2021/12/26 12:05:48;;;;;;;63.00;46.25;;;;;;;;;;5074231;28;20160;-80
2021/12/26 12:08:33;;;;;;;55.53;41.20;;;;;;;;;;5074392;28;20488;-78
2021/12/26 12:11:02;;;;;;;48.55;36.92;;;;;;;;;;5073021;28;20024;-80
2021/12/26 12:13:47;;;;;;;43.72;33.03;;;;;;;;;;5074251;28;20031;-75
2021/12/26 12:16:27;;;;;;;35.88;28.85;;;;;;;;;;5074183;28;20079;-77
2021/12/26 12:18:55;;;;;;;35.75;28.08;;;;;;;;;;5074186;28;20036;-80
2021/12/26 12:21:32;;;;;;;42.63;32.88;;;;;;;;;;5073543;28;20029;-79
2021/12/26 12:24:17;;;;;;;42.03;32.30;;;;;;;;;;5073880;28;20055;-77
2021/12/26 12:26:48;;;;;;;40.55;31.80;;;;;;;;;;5072588;28;20021;-80
2021/12/26 12:29:34;;;;;;;37.75;29.05;;;;;;;;;;5074026;28;20027;-77
2021/12/26 12:32:09;;;;;;;40.90;32.10;;;;;;;;;;5073895;28;20032;-80
2021/12/26 12:34:54;;;;;;;37.05;29.33;;;;;;;;;;5072337;28;20063;-80
2021/12/26 12:37:46;;;;;;;42.83;35.35;;;;;;;;;;5073551;28;20024;-77
2021/12/26 12:40:33;;;;;;;47.20;36.70;;;;;;;;;;5071864;28;20488;-78
2021/12/26 12:43:20;;;;;;;46.88;38.22;;;;;;;;;;5073814;28;20032;-79
2021/12/26 12:46:09;;;;;;;55.10;42.58;;;;;;;;;;5073706;28;20442;-79
2021/12/26 12:48:40;;;;;;;58.55;46.28;;;;;;;;;;5072044;28;20028;-76
2021/12/26 12:51:15;;;;;;;78.78;59.78;;;;;;;;;;5072188;28;20052;-77
2021/12/26 12:54:01;;;;;;;66.05;51.90;;;;;;;;;;5072773;28;20032;-77
2021/12/26 12:56:33;;;;;;;52.15;42.00;;;;;;;;;;5072638;28;20016;-75
2021/12/26 12:59:15;;;;;;;82.43;57.38;;;;;;;;;;5072321;28;20127;-79
2021/12/26 13:01:46;;;;;;;65.85;48.13;;;;;;;;;;5073001;28;20476;-76
2021/12/26 13:04:12;;;;;;;58.95;45.03;;;;;;;;;;5072394;28;20039;-77
2021/12/26 13:06:57;;;;;;;51.97;40.10;;;;;;;;;;5071752;28;20435;-76
2021/12/26 13:09:23;;;;;;;;;;;;;;;;;;5072865;28;20392;-78
2021/12/26 13:11:50;;;;;;;46.35;33.92;;;;;;;;;;5073203;28;19904;-77
2021/12/26 13:14:38;;;;;;;51.55;39.88;;;;;;;;;;5071968;28;20401;-76
2021/12/26 13:17:09;;;;;;;50.53;39.92;;;;;;;;;;5072215;28;20349;-80
2021/12/26 13:19:38;;;;;;;46.20;36.38;;;;;;;;;;5070955;28;20037;-77
2021/12/26 13:22:04;;;;;;;41.72;32.42;;;;;;;;;;5072292;28;20032;-78
2021/12/26 13:24:39;;;;;;;40.67;30.40;;;;;;;;;;5063955;28;20057;-76
2021/12/26 13:27:06;;;;;;;33.97;26.98;;;;;;;;;;5072428;28;20035;-80
2021/12/26 13:29:33;;;;;;;25.45;20.30;;;;;;;;;;5071653;28;20104;-77
2021/12/26 13:31:59;;;;;;;20.73;15.85;;;;;;;;;;5071884;28;20036;-78
2021/12/26 13:34:25;;;;;;;15.43;12.27;;;;;;;;;;5071718;28;20131;-80
2021/12/26 13:36:51;;;;;;;16.10;13.13;;;;;;;;;;5071924;28;20024;-76
2021/12/26 13:39:22;;;;;;;13.48;11.23;;;;;;;;;;5071809;28;20111;-77
2021/12/26 13:41:49;;;;;;;10.38;7.95;;;;;;;;;;5064346;28;20476;-77
2021/12/26 13:44:21;;;;;;;13.15;10.25;;;;;;;;;;5072242;28;20484;-79
2021/12/26 13:46:48;;;;;;;12.15;9.70;;;;;;;;;;5062209;28;20490;-79
2021/12/26 13:49:14;;;;;;;15.00;10.48;;;;;;;;;;5072145;28;20024;-76
2021/12/26 13:51:43;;;;;;;18.27;10.98;;;;;;;;;;5072029;28;20518;-76
2021/12/26 13:54:22;;;;;;;15.75;10.02;;;;;;;;;;5071409;28;20495;-79
2021/12/26 13:56:48;;;;;;;11.43;9.35;;;;;;;;;;5071595;28;20024;-80
2021/12/26 13:59:33;;;;;;;10.95;7.43;;;;;;;;;;5071275;28;20032;-79
2021/12/26 14:02:05;;;;;;;9.82;6.97;;;;;;;;;;5070188;28;20028;-78
2021/12/26 14:04:31;;;;;;;10.05;6.38;;;;;;;;;;5071644;28;20031;-82
2021/12/26 14:06:57;;;;;;;12.48;7.13;;;;;;;;;;5071858;28;20098;-81
2021/12/26 14:09:25;;;;;;;15.50;7.97;;;;;;;;;;5071447;28;20098;-77
2021/12/26 14:11:52;;;;;;;15.65;8.77;;;;;;;;;;5071976;28;20057;-79
2021/12/26 14:14:25;;;;;;;9.57;6.85;;;;;;;;;;5070979;28;20525;-77
2021/12/26 14:16:51;;;;;;;9.05;6.70;;;;;;;;;;5071744;28;20034;-77
2021/12/26 14:19:17;;;;;;;11.45;7.07;;;;;;;;;;5071931;28;20032;-78
2021/12/26 14:21:50;;;;;;;10.77;9.15;;;;;;;;;;5077639;28;20024;-79
2021/12/26 14:24:21;;;;;;;24.98;16.77;;;;;;;;;;5078714;28;20079;-77
2021/12/26 14:26:47;;;;;;;18.23;12.65;;;;;;;;;;5078724;28;20467;-79
2021/12/26 14:29:15;;;;;;;12.05;10.75;;;;;;;;;;5078660;28;20024;-78
2021/12/26 14:31:46;;;;;;;13.68;10.73;;;;;;;;;;5078405;28;20036;-77
2021/12/26 14:34:12;;;;;;;11.90;8.65;;;;;;;;;;5078868;28;20577;-77